createdAt,value
2017-06-29T00:01:13.284Z,96.20
2017-06-29T00:03:39.642Z,96.30
2017-06-29T00:06:06.399Z,96.20
2017-06-29T00:08:32.745Z,96.10
2017-06-29T00:10:59.842Z,96.10
2017-06-29T00:13:26.243Z,96.10
2017-06-29T00:15:52.609Z,96.10
2017-06-29T00:18:19.004Z,96.10
2017-06-29T00:20:45.342Z,96.20
2017-06-29T00:23:12.446Z,96.30
2017-06-29T00:25:39.543Z,96.10
2017-06-29T00:28:05.896Z,96.10
2017-06-29T00:30:32.277Z,96.20
2017-06-29T00:32:58.622Z,96.10
2017-06-29T00:35:24.936Z,96.10
2017-06-29T00:37:51.296Z,96.20
2017-06-29T00:40:17.943Z,96.20
2017-06-29T00:42:44.305Z,96.10
2017-06-29T00:45:10.678Z,95.90
2017-06-29T00:47:37.020Z,95.90
2017-06-29T00:50:03.347Z,95.80
2017-06-29T00:52:29.736Z,95.80
2017-06-29T00:54:56.846Z,95.70
2017-06-29T00:57:23.216Z,95.70
2017-06-29T00:59:49.583Z,95.70
2017-06-29T01:02:15.962Z,95.60
2017-06-29T01:04:42.308Z,95.40
2017-06-29T01:07:09.720Z,95.30
2017-06-29T01:09:36.100Z,95.20
2017-06-29T01:12:02.484Z,95.20
2017-06-29T01:14:28.871Z,95.30
2017-06-29T01:16:55.232Z,95.40
2017-06-29T01:19:24.177Z,95.50
2017-06-29T01:21:50.527Z,95.40
2017-06-29T01:24:16.889Z,95.60
2017-06-29T01:26:43.262Z,95.70
2017-06-29T01:29:09.624Z,95.50
2017-06-29T01:31:36.294Z,95.40
2017-06-29T01:34:02.651Z,95.50
2017-06-29T01:36:29.003Z,95.80
2017-06-29T01:38:55.393Z,95.90
2017-06-29T01:41:21.769Z,96.10
2017-06-29T01:43:48.141Z,96.30
2017-06-29T01:46:14.520Z,96.40
2017-06-29T01:48:41.217Z,96.50
2017-06-29T01:51:07.569Z,96.60
2017-06-29T01:53:34.682Z,96.70
2017-06-29T01:56:01.089Z,96.70
2017-06-29T01:58:27.429Z,96.70
2017-06-29T02:00:53.807Z,96.60
2017-06-29T02:03:20.874Z,96.60
2017-06-29T02:05:47.686Z,96.60
2017-06-29T02:08:21.918Z,96.70
2017-06-29T02:10:48.577Z,96.60
2017-06-29T02:13:14.962Z,96.60
2017-06-29T02:15:42.045Z,96.70
2017-06-29T02:18:08.518Z,96.70
2017-06-29T02:20:34.866Z,96.60
2017-06-29T02:23:01.206Z,96.60
2017-06-29T02:25:28.326Z,96.70
2017-06-29T02:27:54.703Z,96.70
2017-06-29T02:30:21.058Z,96.60
2017-06-29T02:32:47.415Z,96.60
2017-06-29T02:35:13.754Z,96.70
2017-06-29T02:37:40.481Z,96.90
2017-06-29T02:40:06.846Z,96.90
2017-06-29T02:42:33.207Z,96.80
2017-06-29T02:44:59.574Z,96.80
2017-06-29T02:47:25.930Z,96.80
2017-06-29T02:49:53.043Z,97.10
2017-06-29T02:52:19.390Z,97.00
2017-06-29T02:54:46.126Z,96.90
2017-06-29T02:57:12.474Z,97.00
2017-06-29T02:59:38.900Z,97.00
2017-06-29T03:02:05.258Z,97.10
2017-06-29T03:04:31.600Z,96.90
2017-06-29T03:06:57.950Z,96.80
2017-06-29T03:09:25.075Z,96.90
2017-06-29T03:11:51.727Z,96.60
2017-06-29T03:14:18.090Z,96.70
2017-06-29T03:16:45.160Z,97.00
2017-06-29T03:19:11.545Z,96.90
2017-06-29T03:21:37.908Z,96.70
2017-06-29T03:24:04.990Z,96.80
2017-06-29T03:26:31.338Z,96.80
2017-06-29T03:28:57.995Z,96.70
2017-06-29T03:31:24.344Z,96.80
2017-06-29T03:33:51.432Z,96.40
2017-06-29T03:36:17.805Z,96.40
2017-06-29T03:38:44.135Z,96.40
2017-06-29T03:41:10.488Z,96.50
2017-06-29T03:43:37.593Z,96.60
2017-06-29T03:46:04.253Z,96.60
2017-06-29T03:48:30.601Z,96.70
2017-06-29T03:50:56.958Z,96.70
2017-06-29T03:53:23.341Z,96.70
2017-06-29T03:55:50.459Z,96.90
2017-06-29T03:58:16.865Z,96.90
2017-06-29T04:00:43.265Z,96.80
2017-06-29T04:03:10.709Z,96.70
2017-06-29T04:05:37.130Z,96.70
2017-06-29T04:08:03.508Z,96.70
2017-06-29T04:10:29.971Z,96.90
2017-06-29T04:12:56.338Z,96.00
2017-06-29T04:15:22.765Z,95.60
2017-06-29T04:17:49.954Z,95.70
2017-06-29T04:20:16.630Z,96.00
2017-06-29T04:22:43.011Z,95.60
2017-06-29T04:25:09.386Z,95.60
2017-06-29T04:27:35.766Z,95.50
2017-06-29T04:30:02.140Z,95.50
2017-06-29T04:32:28.495Z,95.40
2017-06-29T04:34:55.575Z,95.40
2017-06-29T04:37:21.953Z,95.30
2017-06-29T04:39:48.313Z,95.40
2017-06-29T04:42:15.382Z,95.20
2017-06-29T04:44:42.072Z,95.20
2017-06-29T04:47:08.480Z,95.10
2017-06-29T04:49:34.860Z,95.20
2017-06-29T04:52:01.937Z,95.00
2017-06-29T04:54:28.305Z,94.90
2017-06-29T04:56:54.672Z,95.10
2017-06-29T04:59:21.774Z,94.90
2017-06-29T05:01:48.444Z,94.90
2017-06-29T05:04:15.575Z,94.60
2017-06-29T05:06:41.970Z,94.50
2017-06-29T05:09:08.343Z,94.60
2017-06-29T05:11:34.699Z,94.50
2017-06-29T05:14:01.113Z,94.40
2017-06-29T05:16:27.436Z,94.30
2017-06-29T05:18:54.851Z,94.30
2017-06-29T05:21:21.204Z,94.30
2017-06-29T05:23:47.557Z,94.00
2017-06-29T05:26:14.695Z,93.60
2017-06-29T05:28:41.049Z,93.50
2017-06-29T05:31:07.768Z,93.30
2017-06-29T05:33:34.875Z,93.30
2017-06-29T05:36:01.235Z,93.30
2017-06-29T05:38:27.645Z,93.00
2017-06-29T05:40:54.065Z,93.00
2017-06-29T05:43:20.483Z,93.20
2017-06-29T05:45:46.801Z,92.90
2017-06-29T05:48:13.447Z,93.20
2017-06-29T05:50:39.814Z,92.60
2017-06-29T05:53:06.909Z,92.20
2017-06-29T05:55:33.264Z,92.30
2017-06-29T05:57:59.578Z,92.30
2017-06-29T06:00:25.923Z,92.10
2017-06-29T06:02:52.287Z,92.00
2017-06-29T06:05:19.043Z,91.40
2017-06-29T06:07:46.156Z,91.30
2017-06-29T06:10:12.529Z,91.60
2017-06-29T06:12:38.889Z,90.70
2017-06-29T06:15:05.235Z,90.60
2017-06-29T06:17:31.596Z,90.80
2017-06-29T06:19:57.938Z,90.90
2017-06-29T06:22:25.388Z,90.90
2017-06-29T06:24:52.502Z,90.40
2017-06-29T06:27:18.819Z,90.40
2017-06-29T06:29:45.186Z,90.20
2017-06-29T06:32:11.545Z,90.30
2017-06-29T06:34:37.889Z,90.30
2017-06-29T06:37:04.245Z,89.80
2017-06-29T06:39:30.594Z,90.10
2017-06-29T06:41:57.744Z,90.10
2017-06-29T06:44:24.844Z,90.00
2017-06-29T06:46:51.197Z,89.80
2017-06-29T06:49:17.559Z,88.80
2017-06-29T06:51:45.016Z,89.30
2017-06-29T06:54:12.086Z,89.30
2017-06-29T06:56:38.425Z,89.20
2017-06-29T06:59:04.769Z,89.00
2017-06-29T07:01:31.154Z,87.80
2017-06-29T07:03:57.522Z,88.00
2017-06-29T07:06:23.905Z,86.90
2017-06-29T07:08:50.271Z,87.10
2017-06-29T07:11:16.628Z,86.10
2017-06-29T07:13:43.022Z,85.20
2017-06-29T07:16:09.386Z,87.10
2017-06-29T07:18:35.715Z,88.60
2017-06-29T07:21:02.374Z,87.80
2017-06-29T07:23:28.730Z,88.20
2017-06-29T07:25:55.808Z,87.50
2017-06-29T07:28:22.173Z,87.40
2017-06-29T07:30:48.554Z,88.30
2017-06-29T07:33:14.903Z,89.10
2017-06-29T07:35:41.220Z,89.80
2017-06-29T07:38:07.912Z,90.10
2017-06-29T07:40:34.251Z,90.70
2017-06-29T07:43:00.640Z,91.00
2017-06-29T07:45:27.038Z,91.60
2017-06-29T07:47:53.408Z,92.40
2017-06-29T07:50:19.771Z,92.50
2017-06-29T07:52:46.854Z,93.00
2017-06-29T07:55:13.531Z,92.90
2017-06-29T07:57:39.889Z,92.90
2017-06-29T08:00:06.956Z,93.30
2017-06-29T08:02:33.358Z,93.00
2017-06-29T08:05:00.480Z,92.70
2017-06-29T08:07:27.126Z,92.60
2017-06-29T08:09:53.465Z,92.20
2017-06-29T08:12:19.913Z,92.50
2017-06-29T08:14:47.016Z,92.70
2017-06-29T08:17:13.381Z,92.70
2017-06-29T08:19:39.756Z,92.10
2017-06-29T08:22:06.109Z,91.30
2017-06-29T08:24:32.764Z,90.50
2017-06-29T08:26:59.120Z,90.70
2017-06-29T08:29:26.176Z,90.90
2017-06-29T08:31:52.513Z,90.90
2017-06-29T08:34:18.844Z,91.20
2017-06-29T08:36:45.556Z,91.20
2017-06-29T08:39:12.613Z,90.10
2017-06-29T08:41:38.962Z,90.00
2017-06-29T08:44:05.340Z,88.50
2017-06-29T08:46:31.697Z,87.70
2017-06-29T08:48:58.854Z,86.80
2017-06-29T08:51:25.208Z,86.70
2017-06-29T08:53:51.577Z,86.00
2017-06-29T08:56:17.976Z,87.60
2017-06-29T08:58:44.652Z,87.20
2017-06-29T09:01:10.988Z,87.30
2017-06-29T09:03:37.337Z,86.80
2017-06-29T09:06:04.476Z,88.70
2017-06-29T09:08:31.579Z,88.60
2017-06-29T09:10:58.230Z,88.80
2017-06-29T09:13:24.582Z,88.10
2017-06-29T09:15:50.939Z,88.60
2017-06-29T09:18:17.346Z,88.30
2017-06-29T09:20:43.699Z,87.20
2017-06-29T09:23:10.078Z,82.80
2017-06-29T09:25:36.438Z,85.30
2017-06-29T09:28:03.172Z,82.10
2017-06-29T09:30:29.591Z,82.00
2017-06-29T09:33:04.021Z,82.30
2017-06-29T09:35:30.378Z,81.50
2017-06-29T09:37:56.726Z,79.90
2017-06-29T09:40:23.064Z,80.70
2017-06-29T09:42:49.447Z,81.40
2017-06-29T09:45:16.159Z,82.80
2017-06-29T09:47:42.554Z,85.30
2017-06-29T09:50:08.935Z,87.50
2017-06-29T09:52:35.295Z,88.40
2017-06-29T09:55:01.651Z,88.50
2017-06-29T09:57:28.403Z,87.90
2017-06-29T09:59:54.757Z,87.10
2017-06-29T10:02:21.089Z,82.50
2017-06-29T10:04:47.464Z,83.40
2017-06-29T10:07:13.801Z,83.00
2017-06-29T10:09:40.415Z,76.80
2017-06-29T10:12:06.800Z,73.20
2017-06-29T10:14:33.150Z,72.90
2017-06-29T10:16:59.585Z,72.60
2017-06-29T10:19:27.277Z,73.10
2017-06-29T10:21:53.921Z,73.10
2017-06-29T10:24:20.271Z,74.00
2017-06-29T10:26:46.673Z,74.90
2017-06-29T10:29:13.056Z,73.70
2017-06-29T10:31:39.445Z,67.60
2017-06-29T10:34:06.124Z,68.10
2017-06-29T10:36:33.223Z,68.80
2017-06-29T10:38:59.569Z,68.10
2017-06-29T10:41:25.992Z,65.90
2017-06-29T10:43:52.330Z,63.50
2017-06-29T10:46:19.087Z,61.80
2017-06-29T10:48:45.484Z,60.10
2017-06-29T10:51:11.833Z,61.00
2017-06-29T10:53:38.234Z,60.00
2017-06-29T10:56:04.616Z,61.50
2017-06-29T10:58:31.968Z,59.30
2017-06-29T11:03:31.585Z,59.00
2017-06-29T11:05:57.934Z,58.00
2017-06-29T11:08:24.288Z,57.50
2017-06-29T11:10:50.637Z,58.10
2017-06-29T11:13:16.992Z,57.50
2017-06-29T11:15:43.714Z,57.70
2017-06-29T11:18:10.091Z,57.20
2017-06-29T11:20:36.438Z,56.00
2017-06-29T11:23:02.842Z,55.80
2017-06-29T11:25:29.948Z,55.70
2017-06-29T11:28:01.320Z,55.70
2017-06-29T11:30:28.423Z,55.00
2017-06-29T11:32:54.759Z,54.90
2017-06-29T11:35:21.164Z,55.10
2017-06-29T11:37:47.566Z,55.70
2017-06-29T11:40:14.947Z,54.30
2017-06-29T11:42:41.274Z,53.70
2017-06-29T11:45:07.653Z,55.60
2017-06-29T11:47:34.032Z,54.10
2017-06-29T11:50:00.364Z,51.80
2017-06-29T11:52:27.004Z,50.40
2017-06-29T11:54:53.367Z,51.20
2017-06-29T11:57:19.691Z,50.60
2017-06-29T11:59:46.055Z,49.90
2017-06-29T12:02:13.205Z,49.80
2017-06-29T12:04:39.565Z,49.10
2017-06-29T12:07:06.080Z,46.90
2017-06-29T12:09:33.187Z,46.10
2017-06-29T12:11:59.570Z,46.10
2017-06-29T12:14:25.902Z,44.80
2017-06-29T12:16:52.251Z,44.40
2017-06-29T12:19:18.966Z,44.90
2017-06-29T12:21:45.308Z,45.50
2017-06-29T12:24:11.679Z,48.10
2017-06-29T12:26:38.043Z,48.70
2017-06-29T12:29:04.400Z,49.50
2017-06-29T12:31:31.092Z,47.70
2017-06-29T12:33:57.469Z,48.50
2017-06-29T12:36:23.786Z,50.10
2017-06-29T12:38:50.191Z,50.40
2017-06-29T12:41:17.313Z,47.80
2017-06-29T12:43:44.072Z,47.80
2017-06-29T12:46:10.414Z,45.60
2017-06-29T12:48:37.505Z,40.50
2017-06-29T12:51:03.875Z,40.50
2017-06-29T12:53:30.932Z,43.40
2017-06-29T12:55:58.320Z,42.50
2017-06-29T12:58:24.665Z,42.50
2017-06-29T13:00:51.025Z,42.60
2017-06-29T13:03:17.352Z,43.90
2017-06-29T13:05:43.724Z,42.60
2017-06-29T13:08:10.520Z,42.00
2017-06-29T13:10:36.889Z,39.60
2017-06-29T13:13:03.243Z,39.50
2017-06-29T13:15:29.625Z,38.80
2017-06-29T13:17:57.000Z,37.80
2017-06-29T13:20:23.379Z,37.40
2017-06-29T13:22:49.756Z,38.30
2017-06-29T13:25:16.459Z,36.80
2017-06-29T13:27:42.822Z,37.30
2017-06-29T13:30:09.947Z,38.80
2017-06-29T13:32:36.308Z,38.20
2017-06-29T13:35:02.702Z,38.80
2017-06-29T13:37:29.345Z,40.00
2017-06-29T13:39:55.704Z,39.80
2017-06-29T13:42:22.087Z,39.30
2017-06-29T13:44:48.492Z,39.30
2017-06-29T13:47:14.885Z,41.00
2017-06-29T13:49:41.976Z,42.20
2017-06-29T13:52:08.264Z,42.10
2017-06-29T13:54:35.704Z,41.70
2017-06-29T13:57:02.033Z,41.70
2017-06-29T13:59:29.153Z,42.90
2017-06-29T14:01:55.511Z,42.90
2017-06-29T14:04:22.588Z,43.70
2017-06-29T14:06:49.275Z,43.70
2017-06-29T14:09:15.824Z,44.90
2017-06-29T14:11:42.901Z,46.70
2017-06-29T14:14:09.252Z,47.20
2017-06-29T14:16:35.595Z,48.20
2017-06-29T14:19:01.999Z,47.80
2017-06-29T14:21:28.372Z,46.50
2017-06-29T14:23:55.030Z,47.40
2017-06-29T14:26:22.118Z,47.30
2017-06-29T14:28:48.466Z,47.30
2017-06-29T14:31:14.861Z,47.10
2017-06-29T14:33:41.895Z,47.70
2017-06-29T14:36:08.284Z,47.00
2017-06-29T14:38:34.647Z,46.00
2017-06-29T14:41:01.271Z,45.80
2017-06-29T14:43:27.612Z,46.60
2017-06-29T14:45:53.955Z,47.50
2017-06-29T14:48:20.312Z,47.80
2017-06-29T14:50:46.649Z,46.20
2017-06-29T14:53:13.074Z,44.50
2017-06-29T14:55:39.451Z,43.30
2017-06-29T14:58:06.962Z,44.10
2017-06-29T15:00:33.276Z,44.00
2017-06-29T15:02:59.632Z,44.90
2017-06-29T15:05:25.990Z,45.20
2017-06-29T15:07:52.391Z,45.60
2017-06-29T15:10:19.156Z,46.60
2017-06-29T15:12:45.516Z,47.10
2017-06-29T15:15:11.858Z,47.80
2017-06-29T15:17:38.283Z,46.20
2017-06-29T15:20:04.663Z,44.20
2017-06-29T15:22:31.002Z,42.50
2017-06-29T15:24:57.337Z,41.20
2017-06-29T15:27:24.739Z,39.30
2017-06-29T15:29:51.131Z,39.20
2017-06-29T15:32:18.228Z,38.90
2017-06-29T15:34:44.596Z,38.90
2017-06-29T15:37:10.950Z,38.00
2017-06-29T15:39:37.344Z,38.80
2017-06-29T15:42:03.731Z,40.50
2017-06-29T15:44:30.393Z,42.30
2017-06-29T15:46:56.768Z,44.50
2017-06-29T15:49:23.237Z,46.60
2017-06-29T15:51:49.620Z,47.70
2017-06-29T15:54:15.984Z,48.80
2017-06-29T15:56:42.340Z,49.60
2017-06-29T15:59:08.687Z,50.60
2017-06-29T16:01:35.327Z,50.70
2017-06-29T16:04:01.661Z,50.60
2017-06-29T16:06:28.004Z,50.40
2017-06-29T16:08:55.121Z,51.60
2017-06-29T16:11:21.518Z,51.50
2017-06-29T16:13:48.317Z,52.00
2017-06-29T16:16:15.405Z,52.90
2017-06-29T16:18:41.823Z,52.90
2017-06-29T16:21:08.199Z,53.40
2017-06-29T16:23:37.420Z,55.00
2017-06-29T16:26:03.816Z,55.00
2017-06-29T16:28:30.169Z,56.10
2017-06-29T16:30:56.917Z,54.70
2017-06-29T16:33:23.297Z,54.10
2017-06-29T16:35:49.639Z,52.60
2017-06-29T16:38:15.980Z,51.30
2017-06-29T16:40:42.357Z,49.60
2017-06-29T16:43:08.769Z,49.20
2017-06-29T16:45:35.113Z,48.50
2017-06-29T16:48:01.833Z,48.30
2017-06-29T16:50:28.163Z,47.20
2017-06-29T16:52:54.500Z,47.50
2017-06-29T16:55:21.592Z,46.60
2017-06-29T16:57:47.913Z,46.60
2017-06-29T17:00:14.301Z,46.70
2017-06-29T17:02:41.441Z,47.90
2017-06-29T17:05:07.823Z,47.30
2017-06-29T17:07:47.313Z,49.10
2017-06-29T17:10:14.416Z,52.50
2017-06-29T17:12:41.093Z,52.80
2017-06-29T17:15:07.451Z,54.20
2017-06-29T17:17:33.897Z,55.20
2017-06-29T17:20:00.253Z,56.10
2017-06-29T17:22:26.682Z,56.60
2017-06-29T17:24:53.028Z,57.30
2017-06-29T17:27:19.386Z,58.20
2017-06-29T17:29:46.526Z,59.10
2017-06-29T17:32:13.258Z,59.10
2017-06-29T17:34:39.607Z,59.30
2017-06-29T17:37:05.961Z,59.60
2017-06-29T17:39:32.332Z,60.30
2017-06-29T17:41:58.725Z,61.10
2017-06-29T17:44:25.381Z,61.60
2017-06-29T17:46:51.778Z,62.10
2017-06-29T17:49:18.152Z,62.70
2017-06-29T17:51:44.500Z,63.10
2017-06-29T17:54:10.903Z,63.40
2017-06-29T17:56:37.273Z,63.70
2017-06-29T17:59:04.399Z,65.00
2017-06-29T18:01:31.170Z,64.90
2017-06-29T18:03:57.621Z,65.90
2017-06-29T18:06:23.999Z,66.00
2017-06-29T18:08:50.417Z,66.00
2017-06-29T18:11:16.830Z,66.20
2017-06-29T18:13:43.240Z,67.00
2017-06-29T18:16:09.644Z,67.40
2017-06-29T18:18:37.516Z,65.80
2017-06-29T18:21:05.211Z,65.80
2017-06-29T18:23:31.609Z,65.90
2017-06-29T18:25:58.027Z,68.60
2017-06-29T18:28:25.151Z,75.90
2017-06-29T18:30:51.556Z,75.90
2017-06-29T18:33:17.955Z,79.20
2017-06-29T18:35:44.665Z,81.30
2017-06-29T18:38:11.099Z,83.60
2017-06-29T18:40:38.267Z,85.70
2017-06-29T18:43:05.401Z,87.30
2017-06-29T18:45:32.531Z,88.90
2017-06-29T18:47:59.287Z,88.90
2017-06-29T18:50:26.438Z,87.50
2017-06-29T18:52:53.591Z,88.30
2017-06-29T18:55:20.740Z,88.80
2017-06-29T18:57:47.862Z,88.40
2017-06-29T19:00:14.630Z,88.30
2017-06-29T19:02:41.078Z,89.20
2017-06-29T19:05:07.502Z,89.90
2017-06-29T19:07:33.971Z,89.80
2017-06-29T19:10:00.367Z,90.50
2017-06-29T19:12:27.167Z,90.50
2017-06-29T19:14:53.592Z,90.70
2017-06-29T19:17:20.112Z,90.90
2017-06-29T19:19:46.511Z,91.20
2017-06-29T19:22:12.920Z,91.20
2017-06-29T19:24:39.657Z,91.40
2017-06-29T19:27:06.102Z,91.20
2017-06-29T19:29:32.839Z,91.20
2017-06-29T19:31:59.371Z,91.60
2017-06-29T19:34:25.748Z,91.40
2017-06-29T19:36:52.799Z,91.50
2017-06-29T19:39:19.986Z,91.30
2017-06-29T19:41:46.414Z,91.20
2017-06-29T19:44:12.864Z,91.40
2017-06-29T19:46:39.246Z,91.60
2017-06-29T19:49:05.674Z,91.10
2017-06-29T19:51:32.113Z,91.00
2017-06-29T19:53:59.578Z,90.60
2017-06-29T19:56:26.758Z,90.00
2017-06-29T19:58:53.171Z,90.00
2017-06-29T20:01:20.303Z,89.90
2017-06-29T20:03:46.700Z,89.90
2017-06-29T20:06:13.383Z,89.60
2017-06-29T20:08:40.612Z,88.70
2017-06-29T20:11:06.994Z,88.70
2017-06-29T20:13:33.395Z,89.40
2017-06-29T20:15:59.812Z,89.90
2017-06-29T20:18:26.322Z,89.70
2017-06-29T20:20:52.725Z,90.10
2017-06-29T20:23:19.371Z,90.10
2017-06-29T20:25:45.744Z,90.10
2017-06-29T20:28:12.850Z,90.30
2017-06-29T20:30:39.285Z,90.00
2017-06-29T20:33:05.701Z,90.00
2017-06-29T20:35:32.084Z,90.20
2017-06-29T20:37:58.455Z,90.40
2017-06-29T20:40:25.176Z,90.60
2017-06-29T20:42:51.544Z,91.10
2017-06-29T20:45:17.921Z,91.20
2017-06-29T20:47:45.520Z,91.70
2017-06-29T20:50:11.902Z,91.70
2017-06-29T20:52:38.297Z,92.10
2017-06-29T20:55:04.667Z,92.20
2017-06-29T20:57:32.119Z,92.70
2017-06-29T20:59:59.204Z,92.70
2017-06-29T21:02:25.592Z,93.00
2017-06-29T21:04:52.718Z,92.90
2017-06-29T21:07:19.096Z,92.90
2017-06-29T21:09:45.460Z,93.00
2017-06-29T21:12:11.811Z,93.10
2017-06-29T21:14:38.605Z,93.30
2017-06-29T21:17:04.998Z,93.40
2017-06-29T21:19:31.366Z,93.70
2017-06-29T21:21:57.733Z,93.90
2017-06-29T21:24:24.117Z,94.00
2017-06-29T21:26:51.206Z,93.80
2017-06-29T21:29:17.584Z,93.90
2017-06-29T21:31:45.011Z,93.40
2017-06-29T21:34:11.382Z,93.40
2017-06-29T21:36:37.793Z,93.50
2017-06-29T21:39:04.175Z,94.10
2017-06-29T21:41:30.532Z,94.20
2017-06-29T21:43:57.220Z,94.50
2017-06-29T21:46:23.558Z,94.50
2017-06-29T21:48:49.940Z,94.70
2017-06-29T21:51:17.077Z,94.70
2017-06-29T21:53:43.409Z,94.70
2017-06-29T21:56:09.727Z,94.60
2017-06-29T21:58:36.090Z,94.60
2017-06-29T22:01:03.527Z,94.60
2017-06-29T22:03:29.888Z,94.60
2017-06-29T22:05:56.264Z,94.40
2017-06-29T22:08:22.617Z,94.60
2017-06-29T22:10:48.978Z,94.80
2017-06-29T22:13:16.157Z,94.60
2017-06-29T22:15:42.497Z,95.10
2017-06-29T22:18:09.270Z,95.50
2017-06-29T22:20:35.655Z,95.50
2017-06-29T22:23:02.033Z,95.50
2017-06-29T22:25:29.156Z,95.40
2017-06-29T22:27:55.523Z,95.40
2017-06-29T22:30:21.908Z,95.40
2017-06-29T22:32:48.257Z,95.50
2017-06-29T22:35:15.726Z,95.60
2017-06-29T22:37:42.105Z,95.50
2017-06-29T22:40:08.455Z,95.60
2017-06-29T22:42:34.796Z,95.30
2017-06-29T22:45:01.086Z,95.10
2017-06-29T22:47:27.460Z,95.10
2017-06-29T22:49:54.559Z,94.90
2017-06-29T22:52:20.909Z,94.80
2017-06-29T22:54:48.104Z,95.30
2017-06-29T22:57:14.535Z,95.30
2017-06-29T22:59:41.191Z,95.30
2017-06-29T23:02:07.569Z,95.20
2017-06-29T23:04:33.939Z,95.00
2017-06-29T23:07:00.311Z,95.30
2017-06-29T23:09:26.667Z,95.20
2017-06-29T23:11:53.054Z,95.00
2017-06-29T23:14:19.334Z,95.00
2017-06-29T23:16:48.827Z,95.20
2017-06-29T23:19:15.297Z,95.20
2017-06-29T23:21:41.690Z,95.50
2017-06-29T23:24:08.046Z,95.50
2017-06-29T23:26:34.399Z,95.20
2017-06-29T23:29:01.670Z,95.10
2017-06-29T23:31:28.144Z,95.10
2017-06-29T23:33:54.889Z,94.90
2017-06-29T23:36:21.992Z,94.80
2017-06-29T23:38:48.383Z,94.70
2017-06-29T23:41:14.756Z,94.90
2017-06-29T23:43:41.135Z,94.90
2017-06-29T23:46:07.859Z,94.90
2017-06-29T23:48:35.012Z,95.40
2017-06-29T23:51:02.100Z,95.30
2017-06-29T23:53:28.474Z,95.30
2017-06-29T23:55:55.585Z,95.40
2017-06-29T23:58:22.254Z,95.50
